sensor_id;sensor_type;location;lat;lon;timestamp;P1;durP1;ratioP1;P2;durP2;ratioP2
51298;SDS011;37382;45.192;9.790;2023-05-13T04:08:18;13.23;;;7.53;;
51298;SDS011;37382;45.192;9.790;2023-05-13T04:10:46;11.35;;;7.43;;
51298;SDS011;37382;45.192;9.790;2023-05-13T04:13:14;9.65;;;7.30;;
51298;SDS011;37382;45.192;9.790;2023-05-13T04:15:42;8.13;;;7.28;;
51298;SDS011;37382;45.192;9.790;2023-05-13T04:18:09;8.65;;;7.60;;
51298;SDS011;37382;45.192;9.790;2023-05-13T04:20:37;11.60;;;7.25;;
51298;SDS011;37382;45.192;9.790;2023-05-13T04:23:05;13.95;;;6.80;;
51298;SDS011;37382;45.192;9.790;2023-05-13T04:25:34;14.15;;;7.68;;
51298;SDS011;37382;45.192;9.790;2023-05-13T04:28:03;8.88;;;6.65;;
51298;SDS011;37382;45.192;9.790;2023-05-13T04:30:39;10.02;;;7.20;;
51298;SDS011;37382;45.192;9.790;2023-05-13T04:33:07;8.60;;;7.18;;
51298;SDS011;37382;45.192;9.790;2023-05-13T04:35:36;10.77;;;7.13;;
51298;SDS011;37382;45.192;9.790;2023-05-13T04:38:04;8.52;;;7.57;;
51298;SDS011;37382;45.192;9.790;2023-05-13T04:40:32;7.47;;;6.78;;
51298;SDS011;37382;45.192;9.790;2023-05-13T04:43:05;8.57;;;7.25;;
51298;SDS011;37382;45.192;9.790;2023-05-13T04:45:40;9.20;;;7.22;;
51298;SDS011;37382;45.192;9.790;2023-05-13T04:48:10;16.35;;;7.30;;
51298;SDS011;37382;45.192;9.790;2023-05-13T04:50:38;8.60;;;7.40;;
51298;SDS011;37382;45.192;9.790;2023-05-13T04:53:10;12.30;;;7.15;;
51298;SDS011;37382;45.192;9.790;2023-05-13T04:55:38;9.90;;;7.30;;
51298;SDS011;37382;45.192;9.790;2023-05-13T04:58:05;11.85;;;8.48;;
51298;SDS011;37382;45.192;9.790;2023-05-13T05:00:34;12.95;;;8.80;;
51298;SDS011;37382;45.192;9.790;2023-05-13T05:03:02;11.70;;;9.43;;
51298;SDS011;37382;45.192;9.790;2023-05-13T05:05:30;12.20;;;9.38;;
51298;SDS011;37382;45.192;9.790;2023-05-13T05:07:58;16.45;;;10.13;;
51298;SDS011;37382;45.192;9.790;2023-05-13T05:10:26;12.88;;;10.75;;
51298;SDS011;37382;45.192;9.790;2023-05-13T05:12:58;19.83;;;10.63;;
51298;SDS011;37382;45.192;9.790;2023-05-13T05:15:26;13.30;;;10.50;;
51298;SDS011;37382;45.192;9.790;2023-05-13T05:17:55;12.50;;;11.07;;
51298;SDS011;37382;45.192;9.790;2023-05-13T05:20:23;12.40;;;11.02;;
51298;SDS011;37382;45.192;9.790;2023-05-13T05:22:55;16.92;;;12.25;;
51298;SDS011;37382;45.192;9.790;2023-05-13T05:25:25;13.77;;;11.63;;
51298;SDS011;37382;45.192;9.790;2023-05-13T05:27:53;19.90;;;12.57;;
51298;SDS011;37382;45.192;9.790;2023-05-13T05:30:21;14.35;;;12.70;;
51298;SDS011;37382;45.192;9.790;2023-05-13T05:33:00;19.50;;;13.90;;
51298;SDS011;37382;45.192;9.790;2023-05-13T05:35:28;17.13;;;13.80;;
51298;SDS011;37382;45.192;9.790;2023-05-13T05:37:57;15.63;;;13.40;;
51298;SDS011;37382;45.192;9.790;2023-05-13T05:40:24;22.40;;;14.65;;
51298;SDS011;37382;45.192;9.790;2023-05-13T05:42:52;20.75;;;13.65;;
51298;SDS011;37382;45.192;9.790;2023-05-13T05:45:20;15.50;;;13.88;;
51298;SDS011;37382;45.192;9.790;2023-05-13T05:47:47;23.98;;;14.82;;
51298;SDS011;37382;45.192;9.790;2023-05-13T05:50:16;20.05;;;14.75;;
51298;SDS011;37382;45.192;9.790;2023-05-13T05:52:44;19.27;;;14.88;;
51298;SDS011;37382;45.192;9.790;2023-05-13T05:55:12;22.52;;;18.17;;
51298;SDS011;37382;45.192;9.790;2023-05-13T05:57:40;23.02;;;16.63;;
51298;SDS011;37382;45.192;9.790;2023-05-13T06:00:09;23.50;;;15.57;;
51298;SDS011;37382;45.192;9.790;2023-05-13T06:02:43;20.10;;;15.77;;
51298;SDS011;37382;45.192;9.790;2023-05-13T06:05:12;19.40;;;15.43;;
51298;SDS011;37382;45.192;9.790;2023-05-13T06:07:41;22.90;;;15.60;;
51298;SDS011;37382;45.192;9.790;2023-05-13T06:10:08;20.65;;;16.10;;
51298;SDS011;37382;45.192;9.790;2023-05-13T06:12:36;19.77;;;16.33;;
51298;SDS011;37382;45.192;9.790;2023-05-13T06:15:04;20.70;;;15.07;;
51298;SDS011;37382;45.192;9.790;2023-05-13T06:17:37;17.55;;;14.63;;
51298;SDS011;37382;45.192;9.790;2023-05-13T06:20:06;20.88;;;15.32;;
51298;SDS011;37382;45.192;9.790;2023-05-13T06:22:35;28.27;;;14.98;;
51298;SDS011;37382;45.192;9.790;2023-05-13T06:25:03;22.92;;;16.38;;
51298;SDS011;37382;45.192;9.790;2023-05-13T06:27:32;23.05;;;15.98;;
51298;SDS011;37382;45.192;9.790;2023-05-13T06:30:00;18.95;;;15.70;;
51298;SDS011;37382;45.192;9.790;2023-05-13T06:32:29;23.85;;;15.88;;
51298;SDS011;37382;45.192;9.790;2023-05-13T06:34:56;27.33;;;15.98;;
51298;SDS011;37382;45.192;9.790;2023-05-13T06:37:24;22.40;;;16.42;;
51298;SDS011;37382;45.192;9.790;2023-05-13T06:39:51;23.00;;;15.43;;
51298;SDS011;37382;45.192;9.790;2023-05-13T06:42:19;24.33;;;16.83;;
51298;SDS011;37382;45.192;9.790;2023-05-13T06:44:55;23.95;;;17.02;;
51298;SDS011;37382;45.192;9.790;2023-05-13T06:47:27;24.20;;;17.85;;
51298;SDS011;37382;45.192;9.790;2023-05-13T06:49:54;21.50;;;16.35;;
51298;SDS011;37382;45.192;9.790;2023-05-13T06:52:22;20.45;;;15.93;;
51298;SDS011;37382;45.192;9.790;2023-05-13T06:54:49;21.77;;;16.52;;
51298;SDS011;37382;45.192;9.790;2023-05-13T06:57:17;71.88;;;17.30;;
51298;SDS011;37382;45.192;9.790;2023-05-13T06:59:45;21.73;;;16.40;;
51298;SDS011;37382;45.192;9.790;2023-05-13T07:02:13;21.70;;;15.68;;
51298;SDS011;37382;45.192;9.790;2023-05-13T07:04:41;20.67;;;15.60;;
51298;SDS011;37382;45.192;9.790;2023-05-13T07:07:09;21.58;;;15.32;;
51298;SDS011;37382;45.192;9.790;2023-05-13T07:09:36;17.42;;;13.25;;
51298;SDS011;37382;45.192;9.790;2023-05-13T07:12:04;18.85;;;13.10;;
51298;SDS011;37382;45.192;9.790;2023-05-13T07:14:32;22.08;;;13.57;;
51298;SDS011;37382;45.192;9.790;2023-05-13T07:16:59;16.48;;;13.00;;
51298;SDS011;37382;45.192;9.790;2023-05-13T07:19:28;26.98;;;13.88;;
51298;SDS011;37382;45.192;9.790;2023-05-13T07:21:56;17.55;;;13.27;;
51298;SDS011;37382;45.192;9.790;2023-05-13T07:24:24;21.75;;;13.50;;
51298;SDS011;37382;45.192;9.790;2023-05-13T07:26:51;18.08;;;12.90;;
51298;SDS011;37382;45.192;9.790;2023-05-13T07:29:19;30.25;;;13.05;;
51298;SDS011;37382;45.192;9.790;2023-05-13T07:31:47;28.35;;;13.77;;
51298;SDS011;37382;45.192;9.790;2023-05-13T07:34:14;20.88;;;12.30;;
51298;SDS011;37382;45.192;9.790;2023-05-13T07:36:42;23.63;;;13.95;;
51298;SDS011;37382;45.192;9.790;2023-05-13T07:39:09;19.70;;;11.65;;
51298;SDS011;37382;45.192;9.790;2023-05-13T07:41:38;15.48;;;10.55;;
51298;SDS011;37382;45.192;9.790;2023-05-13T07:44:05;16.27;;;11.30;;
51298;SDS011;37382;45.192;9.790;2023-05-13T07:46:39;19.02;;;11.13;;
51298;SDS011;37382;45.192;9.790;2023-05-13T07:49:08;16.88;;;11.40;;
51298;SDS011;37382;45.192;9.790;2023-05-13T07:51:35;17.75;;;11.82;;
51298;SDS011;37382;45.192;9.790;2023-05-13T07:54:03;17.95;;;11.38;;
51298;SDS011;37382;45.192;9.790;2023-05-13T07:56:31;16.02;;;11.30;;
51298;SDS011;37382;45.192;9.790;2023-05-13T07:58:58;16.77;;;11.35;;
51298;SDS011;37382;45.192;9.790;2023-05-13T08:01:26;22.30;;;10.70;;
51298;SDS011;37382;45.192;9.790;2023-05-13T08:03:54;21.48;;;11.30;;
51298;SDS011;37382;45.192;9.790;2023-05-13T08:06:23;18.25;;;12.00;;
51298;SDS011;37382;45.192;9.790;2023-05-13T08:08:50;21.30;;;10.98;;
51298;SDS011;37382;45.192;9.790;2023-05-13T08:11:18;22.65;;;14.35;;
51298;SDS011;37382;45.192;9.790;2023-05-13T08:13:45;20.67;;;15.30;;
51298;SDS011;37382;45.192;9.790;2023-05-13T08:16:12;20.00;;;15.32;;
51298;SDS011;37382;45.192;9.790;2023-05-13T08:18:40;24.67;;;15.32;;
51298;SDS011;37382;45.192;9.790;2023-05-13T08:21:08;22.10;;;15.38;;
51298;SDS011;37382;45.192;9.790;2023-05-13T08:23:36;18.63;;;15.85;;
51298;SDS011;37382;45.192;9.790;2023-05-13T08:26:12;22.52;;;15.82;;
51298;SDS011;37382;45.192;9.790;2023-05-13T08:28:39;28.20;;;16.92;;
51298;SDS011;37382;45.192;9.790;2023-05-13T08:31:11;20.45;;;15.57;;
51298;SDS011;37382;45.192;9.790;2023-05-13T08:33:40;16.75;;;13.63;;
51298;SDS011;37382;45.192;9.790;2023-05-13T08:36:08;23.25;;;13.88;;
51298;SDS011;37382;45.192;9.790;2023-05-13T08:38:36;15.20;;;11.27;;
51298;SDS011;37382;45.192;9.790;2023-05-13T08:41:04;13.10;;;9.88;;
51298;SDS011;37382;45.192;9.790;2023-05-13T08:43:32;13.68;;;11.07;;
51298;SDS011;37382;45.192;9.790;2023-05-13T08:46:02;17.10;;;11.98;;
51298;SDS011;37382;45.192;9.790;2023-05-13T08:48:31;15.95;;;12.20;;
51298;SDS011;37382;45.192;9.790;2023-05-13T08:51:00;15.68;;;10.95;;
51298;SDS011;37382;45.192;9.790;2023-05-13T08:53:28;17.27;;;11.70;;
51298;SDS011;37382;45.192;9.790;2023-05-13T09:09:28;19.35;;;11.75;;
51298;SDS011;37382;45.192;9.790;2023-05-13T09:11:55;10.60;;;9.50;;
51298;SDS011;37382;45.192;9.790;2023-05-13T09:14:28;14.68;;;9.15;;
51298;SDS011;37382;45.192;9.790;2023-05-13T09:17:02;15.02;;;11.23;;
51298;SDS011;37382;45.192;9.790;2023-05-13T09:19:30;13.30;;;10.27;;
51298;SDS011;37382;45.192;9.790;2023-05-13T09:21:58;18.80;;;10.45;;
51298;SDS011;37382;45.192;9.790;2023-05-13T09:24:26;15.82;;;11.27;;
51298;SDS011;37382;45.192;9.790;2023-05-13T09:26:53;10.43;;;9.35;;
51298;SDS011;37382;45.192;9.790;2023-05-13T09:29:22;13.30;;;9.85;;
51298;SDS011;37382;45.192;9.790;2023-05-13T09:31:52;14.20;;;9.52;;
51298;SDS011;37382;45.192;9.790;2023-05-13T09:37:03;17.63;;;9.93;;
51298;SDS011;37382;45.192;9.790;2023-05-13T09:39:33;9.63;;;8.57;;
51298;SDS011;37382;45.192;9.790;2023-05-13T09:42:13;34.97;;;15.80;;
51298;SDS011;37382;45.192;9.790;2023-05-13T09:44:42;11.40;;;8.88;;
51298;SDS011;37382;45.192;9.790;2023-05-13T09:47:13;15.05;;;9.20;;
51298;SDS011;37382;45.192;9.790;2023-05-13T09:49:43;9.93;;;8.38;;
51298;SDS011;37382;45.192;9.790;2023-05-13T09:55:15;9.95;;;6.93;;
51298;SDS011;37382;45.192;9.790;2023-05-13T09:57:42;12.52;;;6.88;;
51298;SDS011;37382;45.192;9.790;2023-05-13T10:00:10;13.95;;;8.15;;
51298;SDS011;37382;45.192;9.790;2023-05-13T10:02:55;13.32;;;6.55;;
51298;SDS011;37382;45.192;9.790;2023-05-13T10:05:22;11.70;;;5.75;;
51298;SDS011;37382;45.192;9.790;2023-05-13T10:07:50;9.20;;;5.28;;
51298;SDS011;37382;45.192;9.790;2023-05-13T10:10:19;11.32;;;6.72;;
51298;SDS011;37382;45.192;9.790;2023-05-13T10:12:48;9.60;;;6.15;;
51298;SDS011;37382;45.192;9.790;2023-05-13T10:15:18;5.82;;;4.40;;
51298;SDS011;37382;45.192;9.790;2023-05-13T10:17:45;5.30;;;3.67;;
51298;SDS011;37382;45.192;9.790;2023-05-13T10:20:13;11.35;;;3.92;;
51298;SDS011;37382;45.192;9.790;2023-05-13T10:22:41;5.13;;;3.22;;
51298;SDS011;37382;45.192;9.790;2023-05-13T10:25:10;8.27;;;3.60;;
51298;SDS011;37382;45.192;9.790;2023-05-13T10:27:37;10.13;;;4.35;;
51298;SDS011;37382;45.192;9.790;2023-05-13T10:30:06;7.63;;;4.70;;
51298;SDS011;37382;45.192;9.790;2023-05-13T10:32:37;10.45;;;3.92;;
51298;SDS011;37382;45.192;9.790;2023-05-13T10:35:11;9.55;;;4.25;;
51298;SDS011;37382;45.192;9.790;2023-05-13T10:43:36;6.85;;;4.15;;
51298;SDS011;37382;45.192;9.790;2023-05-13T10:46:06;6.88;;;4.07;;
51298;SDS011;37382;45.192;9.790;2023-05-13T10:48:38;10.07;;;3.67;;
51298;SDS011;37382;45.192;9.790;2023-05-13T10:51:08;6.60;;;3.50;;
51298;SDS011;37382;45.192;9.790;2023-05-13T10:56:10;5.88;;;4.00;;
51298;SDS011;37382;45.192;9.790;2023-05-13T10:58:38;10.63;;;3.88;;
51298;SDS011;37382;45.192;9.790;2023-05-13T11:01:12;8.73;;;3.33;;
51298;SDS011;37382;45.192;9.790;2023-05-13T11:03:48;7.70;;;3.60;;
51298;SDS011;37382;45.192;9.790;2023-05-13T11:06:21;4.43;;;3.53;;
51298;SDS011;37382;45.192;9.790;2023-05-13T11:08:51;8.07;;;4.45;;
51298;SDS011;37382;45.192;9.790;2023-05-13T11:16:26;8.75;;;4.03;;
51298;SDS011;37382;45.192;9.790;2023-05-13T11:18:53;6.20;;;4.10;;
51298;SDS011;37382;45.192;9.790;2023-05-13T11:21:31;5.35;;;3.78;;
51298;SDS011;37382;45.192;9.790;2023-05-13T11:24:01;7.20;;;3.85;;
51298;SDS011;37382;45.192;9.790;2023-05-13T11:26:42;13.00;;;3.60;;
51298;SDS011;37382;45.192;9.790;2023-05-13T11:29:36;8.05;;;3.25;;
51298;SDS011;37382;45.192;9.790;2023-05-13T11:32:05;4.93;;;3.08;;
51298;SDS011;37382;45.192;9.790;2023-05-13T11:34:34;6.00;;;3.10;;
51298;SDS011;37382;45.192;9.790;2023-05-13T11:39:29;5.32;;;3.42;;
51298;SDS011;37382;45.192;9.790;2023-05-13T11:41:58;5.47;;;3.88;;
51298;SDS011;37382;45.192;9.790;2023-05-13T11:46:57;5.90;;;3.70;;
51298;SDS011;37382;45.192;9.790;2023-05-13T11:54:42;4.30;;;2.75;;
51298;SDS011;37382;45.192;9.790;2023-05-13T12:00:28;8.77;;;2.78;;
51298;SDS011;37382;45.192;9.790;2023-05-13T12:02:39;2.85;;;2.30;;
51298;SDS011;37382;45.192;9.790;2023-05-13T12:05:08;5.28;;;1.63;;
51298;SDS011;37382;45.192;9.790;2023-05-13T12:07:37;4.47;;;2.10;;
51298;SDS011;37382;45.192;9.790;2023-05-13T12:10:06;6.20;;;2.15;;
51298;SDS011;37382;45.192;9.790;2023-05-13T12:12:38;5.10;;;2.38;;
51298;SDS011;37382;45.192;9.790;2023-05-13T12:15:12;10.38;;;2.40;;
51298;SDS011;37382;45.192;9.790;2023-05-13T12:17:42;3.40;;;2.00;;
51298;SDS011;37382;45.192;9.790;2023-05-13T12:20:11;5.05;;;2.28;;
51298;SDS011;37382;45.192;9.790;2023-05-13T12:22:59;4.55;;;2.28;;
51298;SDS011;37382;45.192;9.790;2023-05-13T12:30:51;4.22;;;2.00;;
51298;SDS011;37382;45.192;9.790;2023-05-13T12:33:26;3.65;;;1.67;;
51298;SDS011;37382;45.192;9.790;2023-05-13T12:39:01;6.15;;;2.17;;
51298;SDS011;37382;45.192;9.790;2023-05-13T12:41:31;9.30;;;1.92;;
51298;SDS011;37382;45.192;9.790;2023-05-13T12:44:03;4.78;;;1.95;;
51298;SDS011;37382;45.192;9.790;2023-05-13T12:49:03;5.18;;;2.20;;
51298;SDS011;37382;45.192;9.790;2023-05-13T12:51:32;2.75;;;1.73;;
51298;SDS011;37382;45.192;9.790;2023-05-13T12:54:00;5.07;;;1.90;;
51298;SDS011;37382;45.192;9.790;2023-05-13T12:56:27;4.30;;;1.80;;
51298;SDS011;37382;45.192;9.790;2023-05-13T12:58:55;15.98;;;2.30;;
51298;SDS011;37382;45.192;9.790;2023-05-13T13:01:23;5.53;;;1.80;;
51298;SDS011;37382;45.192;9.790;2023-05-13T13:03:51;4.03;;;1.58;;
51298;SDS011;37382;45.192;9.790;2023-05-13T13:06:19;3.80;;;1.58;;
51298;SDS011;37382;45.192;9.790;2023-05-13T13:08:47;4.15;;;2.10;;
51298;SDS011;37382;45.192;9.790;2023-05-13T13:11:14;10.40;;;1.80;;
51298;SDS011;37382;45.192;9.790;2023-05-13T13:13:45;5.57;;;2.05;;
51298;SDS011;37382;45.192;9.790;2023-05-13T13:16:12;4.78;;;2.03;;
51298;SDS011;37382;45.192;9.790;2023-05-13T13:18:40;6.72;;;1.50;;
51298;SDS011;37382;45.192;9.790;2023-05-13T13:21:08;6.95;;;1.67;;
51298;SDS011;37382;45.192;9.790;2023-05-13T13:23:36;8.57;;;2.08;;
51298;SDS011;37382;45.192;9.790;2023-05-13T13:26:03;5.30;;;2.08;;
51298;SDS011;37382;45.192;9.790;2023-05-13T13:28:31;4.38;;;1.25;;
51298;SDS011;37382;45.192;9.790;2023-05-13T13:30:59;5.22;;;1.27;;
51298;SDS011;37382;45.192;9.790;2023-05-13T13:33:26;3.67;;;1.50;;
51298;SDS011;37382;45.192;9.790;2023-05-13T13:35:54;8.45;;;1.05;;
51298;SDS011;37382;45.192;9.790;2023-05-13T13:38:22;6.35;;;1.70;;
51298;SDS011;37382;45.192;9.790;2023-05-13T13:40:50;7.60;;;1.95;;
51298;SDS011;37382;45.192;9.790;2023-05-13T13:43:17;7.35;;;1.30;;
51298;SDS011;37382;45.192;9.790;2023-05-13T13:45:45;6.65;;;1.98;;
51298;SDS011;37382;45.192;9.790;2023-05-13T13:48:13;4.88;;;2.33;;
51298;SDS011;37382;45.192;9.790;2023-05-13T13:50:41;14.80;;;3.00;;
51298;SDS011;37382;45.192;9.790;2023-05-13T13:53:12;22.75;;;5.35;;
51298;SDS011;37382;45.192;9.790;2023-05-13T13:55:40;9.32;;;2.65;;
51298;SDS011;37382;45.192;9.790;2023-05-13T13:58:07;14.15;;;3.22;;
51298;SDS011;37382;45.192;9.790;2023-05-13T14:00:35;26.63;;;4.53;;
51298;SDS011;37382;45.192;9.790;2023-05-13T14:03:03;22.33;;;4.85;;
51298;SDS011;37382;45.192;9.790;2023-05-13T14:05:30;7.85;;;2.00;;
51298;SDS011;37382;45.192;9.790;2023-05-13T14:07:58;5.30;;;1.83;;
51298;SDS011;37382;45.192;9.790;2023-05-13T14:10:27;5.47;;;2.17;;
51298;SDS011;37382;45.192;9.790;2023-05-13T14:12:54;26.90;;;7.35;;
51298;SDS011;37382;45.192;9.790;2023-05-13T14:15:22;6.05;;;2.13;;
51298;SDS011;37382;45.192;9.790;2023-05-13T14:17:55;8.23;;;2.65;;
51298;SDS011;37382;45.192;9.790;2023-05-13T14:20:23;16.50;;;4.22;;
51298;SDS011;37382;45.192;9.790;2023-05-13T14:22:51;12.10;;;3.10;;
51298;SDS011;37382;45.192;9.790;2023-05-13T14:25:19;17.77;;;4.13;;
51298;SDS011;37382;45.192;9.790;2023-05-13T14:27:46;6.60;;;2.78;;
51298;SDS011;37382;45.192;9.790;2023-05-13T14:30:14;3.78;;;1.75;;
51298;SDS011;37382;45.192;9.790;2023-05-13T14:32:41;16.45;;;3.63;;
51298;SDS011;37382;45.192;9.790;2023-05-13T14:35:13;5.28;;;2.17;;
51298;SDS011;37382;45.192;9.790;2023-05-13T14:37:41;2.92;;;1.60;;
51298;SDS011;37382;45.192;9.790;2023-05-13T14:40:08;8.00;;;1.58;;
51298;SDS011;37382;45.192;9.790;2023-05-13T14:42:36;6.22;;;1.55;;
51298;SDS011;37382;45.192;9.790;2023-05-13T14:45:04;5.25;;;1.50;;
51298;SDS011;37382;45.192;9.790;2023-05-13T14:47:32;2.67;;;1.60;;
51298;SDS011;37382;45.192;9.790;2023-05-13T14:49:59;7.10;;;1.92;;
51298;SDS011;37382;45.192;9.790;2023-05-13T14:52:27;7.47;;;2.03;;
51298;SDS011;37382;45.192;9.790;2023-05-13T14:54:54;3.55;;;1.58;;
51298;SDS011;37382;45.192;9.790;2023-05-13T14:57:22;5.80;;;1.95;;
51298;SDS011;37382;45.192;9.790;2023-05-13T14:59:49;3.40;;;1.80;;
51298;SDS011;37382;45.192;9.790;2023-05-13T15:02:17;5.35;;;1.88;;
51298;SDS011;37382;45.192;9.790;2023-05-13T15:04:44;4.55;;;1.85;;
51298;SDS011;37382;45.192;9.790;2023-05-13T15:07:11;5.53;;;2.10;;
51298;SDS011;37382;45.192;9.790;2023-05-13T15:09:39;9.95;;;2.38;;
51298;SDS011;37382;45.192;9.790;2023-05-13T15:12:07;5.82;;;1.70;;
51298;SDS011;37382;45.192;9.790;2023-05-13T15:14:35;5.57;;;2.20;;
51298;SDS011;37382;45.192;9.790;2023-05-13T15:17:02;11.82;;;2.45;;
51298;SDS011;37382;45.192;9.790;2023-05-13T15:19:32;6.78;;;4.00;;
51298;SDS011;37382;45.192;9.790;2023-05-13T15:21:59;3.58;;;2.00;;
51298;SDS011;37382;45.192;9.790;2023-05-13T15:24:27;3.38;;;1.88;;
51298;SDS011;37382;45.192;9.790;2023-05-13T15:26:54;2.95;;;1.58;;
51298;SDS011;37382;45.192;9.790;2023-05-13T15:29:22;4.63;;;1.60;;
51298;SDS011;37382;45.192;9.790;2023-05-13T15:31:49;3.40;;;1.33;;
51298;SDS011;37382;45.192;9.790;2023-05-13T15:34:17;3.33;;;1.60;;
51298;SDS011;37382;45.192;9.790;2023-05-13T15:36:44;7.63;;;1.73;;
51298;SDS011;37382;45.192;9.790;2023-05-13T15:39:12;3.03;;;1.80;;
51298;SDS011;37382;45.192;9.790;2023-05-13T15:41:40;2.85;;;2.00;;
51298;SDS011;37382;45.192;9.790;2023-05-13T15:44:09;4.88;;;1.80;;
51298;SDS011;37382;45.192;9.790;2023-05-13T15:46:36;7.47;;;2.55;;
51298;SDS011;37382;45.192;9.790;2023-05-13T15:49:04;4.85;;;2.90;;
51298;SDS011;37382;45.192;9.790;2023-05-13T15:51:33;5.53;;;2.50;;
51298;SDS011;37382;45.192;9.790;2023-05-13T15:54:01;4.18;;;2.30;;
51298;SDS011;37382;45.192;9.790;2023-05-13T15:56:29;3.10;;;2.10;;
51298;SDS011;37382;45.192;9.790;2023-05-13T15:58:56;3.67;;;2.00;;
51298;SDS011;37382;45.192;9.790;2023-05-13T16:01:23;5.72;;;2.30;;
51298;SDS011;37382;45.192;9.790;2023-05-13T16:03:52;3.50;;;2.33;;
51298;SDS011;37382;45.192;9.790;2023-05-13T16:06:19;4.97;;;1.92;;
51298;SDS011;37382;45.192;9.790;2023-05-13T16:08:47;9.35;;;1.95;;
51298;SDS011;37382;45.192;9.790;2023-05-13T16:11:15;4.95;;;1.50;;
51298;SDS011;37382;45.192;9.790;2023-05-13T16:13:42;3.95;;;1.88;;
51298;SDS011;37382;45.192;9.790;2023-05-13T16:16:10;5.10;;;1.95;;
51298;SDS011;37382;45.192;9.790;2023-05-13T16:18:37;2.88;;;1.05;;
51298;SDS011;37382;45.192;9.790;2023-05-13T16:21:05;2.47;;;1.00;;
51298;SDS011;37382;45.192;9.790;2023-05-13T16:23:32;3.63;;;1.00;;
51298;SDS011;37382;45.192;9.790;2023-05-13T16:26:00;2.38;;;0.88;;
51298;SDS011;37382;45.192;9.790;2023-05-13T16:28:28;4.07;;;0.90;;
51298;SDS011;37382;45.192;9.790;2023-05-13T16:30:56;1.08;;;0.77;;
51298;SDS011;37382;45.192;9.790;2023-05-13T16:33:25;4.30;;;1.35;;
51298;SDS011;37382;45.192;9.790;2023-05-13T16:35:54;3.45;;;1.25;;
51298;SDS011;37382;45.192;9.790;2023-05-13T16:38:21;3.40;;;1.30;;
51298;SDS011;37382;45.192;9.790;2023-05-13T16:40:49;4.28;;;1.40;;
51298;SDS011;37382;45.192;9.790;2023-05-13T16:43:17;2.92;;;1.58;;
51298;SDS011;37382;45.192;9.790;2023-05-13T16:45:45;3.25;;;1.60;;
51298;SDS011;37382;45.192;9.790;2023-05-13T16:48:20;5.95;;;1.55;;
51298;SDS011;37382;45.192;9.790;2023-05-13T16:50:51;6.95;;;2.00;;
51298;SDS011;37382;45.192;9.790;2023-05-13T16:53:18;8.38;;;2.30;;
51298;SDS011;37382;45.192;9.790;2023-05-13T16:55:48;4.85;;;2.42;;
51298;SDS011;37382;45.192;9.790;2023-05-13T16:58:16;6.32;;;2.45;;
51298;SDS011;37382;45.192;9.790;2023-05-13T17:00:43;5.20;;;1.63;;
51298;SDS011;37382;45.192;9.790;2023-05-13T17:03:12;3.83;;;1.92;;
51298;SDS011;37382;45.192;9.790;2023-05-13T17:05:39;11.23;;;1.73;;
51298;SDS011;37382;45.192;9.790;2023-05-13T17:08:07;4.07;;;1.88;;
51298;SDS011;37382;45.192;9.790;2023-05-13T17:10:35;3.22;;;1.83;;
51298;SDS011;37382;45.192;9.790;2023-05-13T17:13:02;6.60;;;2.22;;
51298;SDS011;37382;45.192;9.790;2023-05-13T17:15:30;5.25;;;2.17;;
51298;SDS011;37382;45.192;9.790;2023-05-13T17:17:58;8.23;;;2.47;;
51298;SDS011;37382;45.192;9.790;2023-05-13T17:20:25;5.80;;;2.38;;
51298;SDS011;37382;45.192;9.790;2023-05-13T17:22:53;6.07;;;2.60;;
51298;SDS011;37382;45.192;9.790;2023-05-13T17:25:20;6.88;;;1.73;;
51298;SDS011;37382;45.192;9.790;2023-05-13T17:27:48;7.20;;;1.75;;
51298;SDS011;37382;45.192;9.790;2023-05-13T17:30:16;4.80;;;1.90;;
51298;SDS011;37382;45.192;9.790;2023-05-13T17:32:43;7.20;;;2.03;;
51298;SDS011;37382;45.192;9.790;2023-05-13T17:35:11;3.63;;;1.92;;
51298;SDS011;37382;45.192;9.790;2023-05-13T17:37:39;5.07;;;1.92;;
51298;SDS011;37382;45.192;9.790;2023-05-13T17:40:07;3.35;;;1.73;;
51298;SDS011;37382;45.192;9.790;2023-05-13T17:42:35;5.80;;;1.63;;
51298;SDS011;37382;45.192;9.790;2023-05-13T17:45:03;3.55;;;1.92;;
51298;SDS011;37382;45.192;9.790;2023-05-13T17:47:31;6.20;;;1.83;;
51298;SDS011;37382;45.192;9.790;2023-05-13T17:49:59;6.82;;;1.70;;
51298;SDS011;37382;45.192;9.790;2023-05-13T17:52:26;8.48;;;2.35;;
51298;SDS011;37382;45.192;9.790;2023-05-13T17:54:53;3.00;;;1.88;;
51298;SDS011;37382;45.192;9.790;2023-05-13T17:57:21;1.88;;;1.55;;
51298;SDS011;37382;45.192;9.790;2023-05-13T17:59:48;3.65;;;1.75;;
51298;SDS011;37382;45.192;9.790;2023-05-13T18:02:16;2.47;;;1.88;;
51298;SDS011;37382;45.192;9.790;2023-05-13T18:04:44;10.88;;;1.80;;
51298;SDS011;37382;45.192;9.790;2023-05-13T18:07:12;6.43;;;2.42;;
51298;SDS011;37382;45.192;9.790;2023-05-13T18:09:39;8.93;;;1.67;;
51298;SDS011;37382;45.192;9.790;2023-05-13T18:12:06;4.50;;;1.95;;
51298;SDS011;37382;45.192;9.790;2023-05-13T18:14:34;3.58;;;1.73;;
51298;SDS011;37382;45.192;9.790;2023-05-13T18:17:01;4.88;;;1.50;;
51298;SDS011;37382;45.192;9.790;2023-05-13T18:19:28;3.03;;;1.73;;
51298;SDS011;37382;45.192;9.790;2023-05-13T18:21:56;4.53;;;2.47;;
51298;SDS011;37382;45.192;9.790;2023-05-13T18:24:24;6.38;;;3.67;;
51298;SDS011;37382;45.192;9.790;2023-05-13T18:26:51;10.82;;;4.80;;
51298;SDS011;37382;45.192;9.790;2023-05-13T18:29:19;8.40;;;3.10;;
51298;SDS011;37382;45.192;9.790;2023-05-13T18:31:46;5.03;;;2.80;;
51298;SDS011;37382;45.192;9.790;2023-05-13T18:34:13;11.00;;;2.80;;
51298;SDS011;37382;45.192;9.790;2023-05-13T18:36:41;5.10;;;3.72;;
51298;SDS011;37382;45.192;9.790;2023-05-13T18:39:08;6.45;;;3.72;;
51298;SDS011;37382;45.192;9.790;2023-05-13T18:41:37;6.72;;;3.60;;
51298;SDS011;37382;45.192;9.790;2023-05-13T18:44:04;10.80;;;3.15;;
51298;SDS011;37382;45.192;9.790;2023-05-13T18:46:31;4.10;;;3.40;;
51298;SDS011;37382;45.192;9.790;2023-05-13T18:48:59;6.18;;;4.10;;
51298;SDS011;37382;45.192;9.790;2023-05-13T18:51:27;4.57;;;3.22;;
51298;SDS011;37382;45.192;9.790;2023-05-13T18:53:54;3.30;;;2.53;;
51298;SDS011;37382;45.192;9.790;2023-05-13T18:56:22;4.40;;;1.70;;
51298;SDS011;37382;45.192;9.790;2023-05-13T18:58:49;2.92;;;1.85;;
51298;SDS011;37382;45.192;9.790;2023-05-13T19:01:17;4.25;;;2.17;;
51298;SDS011;37382;45.192;9.790;2023-05-13T19:03:45;3.40;;;1.85;;
51298;SDS011;37382;45.192;9.790;2023-05-13T19:06:12;5.13;;;1.80;;
51298;SDS011;37382;45.192;9.790;2023-05-13T19:08:41;4.40;;;1.88;;
51298;SDS011;37382;45.192;9.790;2023-05-13T19:11:10;4.70;;;1.50;;
51298;SDS011;37382;45.192;9.790;2023-05-13T19:13:38;2.40;;;1.70;;
51298;SDS011;37382;45.192;9.790;2023-05-13T19:16:12;8.82;;;1.80;;
51298;SDS011;37382;45.192;9.790;2023-05-13T19:18:39;3.95;;;1.88;;
51298;SDS011;37382;45.192;9.790;2023-05-13T19:21:07;3.72;;;2.00;;
51298;SDS011;37382;45.192;9.790;2023-05-13T19:23:35;2.20;;;2.00;;
51298;SDS011;37382;45.192;9.790;2023-05-13T19:26:04;5.70;;;2.45;;
51298;SDS011;37382;45.192;9.790;2023-05-13T19:28:32;3.95;;;2.35;;
51298;SDS011;37382;45.192;9.790;2023-05-13T19:31:00;4.72;;;2.38;;
51298;SDS011;37382;45.192;9.790;2023-05-13T19:33:27;4.63;;;2.17;;
51298;SDS011;37382;45.192;9.790;2023-05-13T19:35:55;7.50;;;3.20;;
51298;SDS011;37382;45.192;9.790;2023-05-13T19:38:22;7.80;;;2.92;;
51298;SDS011;37382;45.192;9.790;2023-05-13T19:40:51;7.03;;;3.53;;
51298;SDS011;37382;45.192;9.790;2023-05-13T19:43:19;8.30;;;3.40;;
51298;SDS011;37382;45.192;9.790;2023-05-13T19:45:47;6.88;;;3.55;;
51298;SDS011;37382;45.192;9.790;2023-05-13T19:48:14;4.05;;;2.20;;
51298;SDS011;37382;45.192;9.790;2023-05-13T19:50:42;2.17;;;1.92;;